AMX1681 CYUL-MMMX
Flight info
| Callsign | AMX1681 |
|---|---|
| Flight time | N/A |
| Altitude | 34000 |
| Route | FAWNS DCT BUGSY DCT SYR DCT EWC DCT AIR/N0446F360 DCT HNN DCT TONIO DCT VXV DCT MCB DCT TBD M575 KENGS M345 SEAGL/N0444F380 M345 AXEXO UM345 PAZ UT154 ENAGA ENAGA3B |
| Aircraft | B738/M-SDE2E3FGHIRWXY/LB1 |
Departure
| Time | 2026-05-04 19:22 |
|---|---|
| Airport | Montreal / Pierre Elliott Trudeau International Airport (CYUL) |
Arrival
| Time | N/A |
|---|---|
| Airport | Mexico City Benito Juárez International Airport (MMMX) |
| Time | Latitude | Longitude | Altitude | Speed | Heading |
|---|---|---|---|---|---|
| 2026-05-04 19:11 | 45.46811 | -73.73379 | 114 ft | 0 kts | 134° |
| 2026-05-04 19:15 | 45.46809 | -73.73377 | 114 ft | 2 kts | 141° |
| 2026-05-04 19:15 | 45.46786 | -73.73399 | 107 ft | 8 kts | 225° |
| 2026-05-04 19:15 | 45.46728 | -73.73484 | 113 ft | 14 kts | 225° |
| 2026-05-04 19:15 | 45.46651 | -73.73551 | 114 ft | 13 kts | 181° |
| 2026-05-04 19:16 | 45.46630 | -73.73447 | 113 ft | 13 kts | 68° |
| 2026-05-04 19:16 | 45.46685 | -73.73348 | 111 ft | 13 kts | 43° |
| 2026-05-04 19:16 | 45.46747 | -73.73263 | 111 ft | 12 kts | 44° |
| 2026-05-04 19:16 | 45.46808 | -73.73180 | 112 ft | 12 kts | 43° |
| 2026-05-04 19:17 | 45.46869 | -73.73101 | 113 ft | 12 kts | 42° |
| 2026-05-04 19:17 | 45.46929 | -73.73025 | 115 ft | 11 kts | 41° |
| 2026-05-04 19:17 | 45.46987 | -73.72951 | 118 ft | 11 kts | 43° |
| 2026-05-04 19:17 | 45.47052 | -73.72865 | 118 ft | 15 kts | 43° |
| 2026-05-04 19:18 | 45.47130 | -73.72762 | 118 ft | 15 kts | 42° |
| 2026-05-04 19:18 | 45.47206 | -73.72666 | 119 ft | 14 kts | 41° |
| 2026-05-04 19:18 | 45.47277 | -73.72571 | 118 ft | 14 kts | 43° |
| 2026-05-04 19:18 | 45.47345 | -73.72481 | 116 ft | 13 kts | 43° |
| 2026-05-04 19:19 | 45.47410 | -73.72394 | 117 ft | 13 kts | 43° |
| 2026-05-04 19:19 | 45.47474 | -73.72309 | 120 ft | 12 kts | 43° |
| 2026-05-04 19:19 | 45.47537 | -73.72227 | 121 ft | 12 kts | 43° |
| 2026-05-04 19:19 | 45.47598 | -73.72147 | 124 ft | 12 kts | 42° |
| 2026-05-04 19:20 | 45.47656 | -73.72067 | 122 ft | 11 kts | 44° |
| 2026-05-04 19:20 | 45.47713 | -73.71989 | 128 ft | 11 kts | 44° |
| 2026-05-04 19:20 | 45.47767 | -73.71914 | 125 ft | 11 kts | 44° |
| 2026-05-04 19:20 | 45.47806 | -73.71828 | 126 ft | 11 kts | 86° |
| 2026-05-04 19:21 | 45.47772 | -73.71741 | 125 ft | 10 kts | 134° |
| 2026-05-04 19:21 | 45.47718 | -73.71676 | 125 ft | 10 kts | 147° |
| 2026-05-04 19:21 | 45.47635 | -73.71691 | 125 ft | 30 kts | 215° |
| 2026-05-04 19:21 | 45.47294 | -73.72136 | 117 ft | 102 kts | 223° |
| 2026-05-04 19:22 | 45.46607 | -73.73005 | 114 ft | 160 kts | 219° |
| 2026-05-04 19:22 | 45.45695 | -73.74133 | 528 ft | 180 kts | 220° |
| 2026-05-04 19:22 | 45.44730 | -73.75276 | 1479 ft | 174 kts | 217° |
| 2026-05-04 19:22 | 45.43689 | -73.76064 | 2406 ft | 177 kts | 211° |
| 2026-05-04 19:23 | 45.42511 | -73.76900 | 2631 ft | 198 kts | 210° |
| 2026-05-04 19:23 | 45.41230 | -73.77816 | 2789 ft | 216 kts | 210° |
| 2026-05-04 19:23 | 45.39846 | -73.78816 | 3079 ft | 229 kts | 211° |
| 2026-05-04 19:23 | 45.38361 | -73.79900 | 3292 ft | 247 kts | 210° |
| 2026-05-04 19:24 | 45.36818 | -73.81032 | 3898 ft | 249 kts | 211° |
| 2026-05-04 19:24 | 45.35275 | -73.82169 | 4525 ft | 253 kts | 211° |
| 2026-05-04 19:24 | 45.33705 | -73.83333 | 5204 ft | 252 kts | 211° |
| 2026-05-04 19:24 | 45.32133 | -73.84503 | 5822 ft | 258 kts | 212° |
| 2026-05-04 19:25 | 45.30554 | -73.85682 | 6394 ft | 261 kts | 213° |
| 2026-05-04 19:25 | 45.28949 | -73.86881 | 7005 ft | 262 kts | 213° |
| 2026-05-04 19:25 | 45.27333 | -73.88091 | 7595 ft | 263 kts | 214° |
| 2026-05-04 19:25 | 45.25708 | -73.89306 | 8192 ft | 266 kts | 214° |
| 2026-05-04 19:26 | 45.24060 | -73.90541 | 8769 ft | 268 kts | 215° |
| 2026-05-04 19:26 | 45.22405 | -73.91780 | 9363 ft | 270 kts | 215° |
| 2026-05-04 19:26 | 45.20732 | -73.93032 | 9912 ft | 272 kts | 215° |
| 2026-05-04 19:26 | 45.19595 | -73.93882 | 10241 ft | 276 kts | 215° |
| 2026-05-04 19:27 | 45.17253 | -73.95643 | 10431 ft | 299 kts | 215° |
| 2026-05-04 19:27 | 45.16011 | -73.96577 | 10525 ft | 311 kts | 214° |
| 2026-05-04 19:27 | 45.14048 | -73.98047 | 10659 ft | 327 kts | 214° |
| 2026-05-04 19:27 | 45.11978 | -73.99591 | 10782 ft | 344 kts | 213° |
| 2026-05-04 19:28 | 45.09807 | -74.01206 | 10905 ft | 359 kts | 213° |
| 2026-05-04 19:28 | 45.07551 | -74.02882 | 11032 ft | 373 kts | 213° |
| 2026-05-04 19:28 | 45.05233 | -74.04600 | 11388 ft | 378 kts | 213° |
| 2026-05-04 19:28 | 45.02896 | -74.06332 | 11891 ft | 380 kts | 213° |
| 2026-05-04 19:29 | 45.00524 | -74.08025 | 12390 ft | 385 kts | 208° |
| 2026-05-04 19:29 | 44.97965 | -74.09258 | 12894 ft | 394 kts | 199° |
| 2026-05-04 19:29 | 44.95230 | -74.09898 | 13394 ft | 401 kts | 192° |
| 2026-05-04 19:29 | 44.92450 | -74.10380 | 13868 ft | 404 kts | 192° |
| 2026-05-04 19:30 | 44.89649 | -74.10867 | 14318 ft | 407 kts | 192° |
| 2026-05-04 19:30 | 44.86821 | -74.11374 | 14797 ft | 410 kts | 192° |
| 2026-05-04 19:30 | 44.83984 | -74.11899 | 15258 ft | 413 kts | 193° |
| 2026-05-04 19:30 | 44.81161 | -74.12430 | 15709 ft | 416 kts | 193° |
| 2026-05-04 19:31 | 44.78279 | -74.12975 | 16162 ft | 419 kts | 193° |
| 2026-05-04 19:31 | 44.75388 | -74.13587 | 16579 ft | 420 kts | 198° |
| 2026-05-04 19:31 | 44.72656 | -74.14909 | 17020 ft | 414 kts | 211° |
| 2026-05-04 19:31 | 44.70202 | -74.16977 | 17473 ft | 410 kts | 221° |
| 2026-05-04 19:32 | 44.68089 | -74.19652 | 17893 ft | 408 kts | 229° |
| 2026-05-04 19:32 | 44.66073 | -74.22462 | 18260 ft | 411 kts | 229° |
| 2026-05-04 19:32 | 44.64033 | -74.25311 | 18588 ft | 415 kts | 229° |
| 2026-05-04 19:32 | 44.61972 | -74.28175 | 18941 ft | 418 kts | 229° |
| 2026-05-04 19:33 | 44.59884 | -74.31057 | 19298 ft | 421 kts | 229° |
| 2026-05-04 19:33 | 44.57784 | -74.33940 | 19646 ft | 424 kts | 229° |
| 2026-05-04 19:33 | 44.55669 | -74.36831 | 19982 ft | 426 kts | 228° |
| 2026-05-04 19:33 | 44.53538 | -74.39735 | 20316 ft | 429 kts | 228° |
| 2026-05-04 19:34 | 44.51390 | -74.42656 | 20628 ft | 432 kts | 228° |
| 2026-05-04 19:34 | 44.49221 | -74.45602 | 20964 ft | 434 kts | 228° |
| 2026-05-04 19:34 | 44.47073 | -74.48515 | 21262 ft | 437 kts | 228° |
| 2026-05-04 19:34 | 44.44882 | -74.51483 | 21569 ft | 439 kts | 228° |
| 2026-05-04 19:35 | 44.42677 | -74.54467 | 21872 ft | 442 kts | 228° |
| 2026-05-04 19:35 | 44.40462 | -74.57461 | 22166 ft | 444 kts | 228° |
| 2026-05-04 19:35 | 44.38231 | -74.60473 | 22469 ft | 447 kts | 228° |
| 2026-05-04 19:35 | 44.35989 | -74.63497 | 22752 ft | 449 kts | 228° |
| 2026-05-04 19:36 | 44.33738 | -74.66531 | 23032 ft | 451 kts | 228° |
| 2026-05-04 19:36 | 44.31471 | -74.69582 | 23303 ft | 453 kts | 228° |
| 2026-05-04 19:36 | 44.29195 | -74.72642 | 23554 ft | 455 kts | 228° |
| 2026-05-04 19:36 | 44.26906 | -74.75716 | 23829 ft | 456 kts | 229° |
| 2026-05-04 19:37 | 44.24618 | -74.78784 | 24105 ft | 457 kts | 229° |
| 2026-05-04 19:37 | 44.22323 | -74.81859 | 24347 ft | 458 kts | 229° |
| 2026-05-04 19:37 | 44.20017 | -74.84945 | 24577 ft | 460 kts | 229° |
| 2026-05-04 19:37 | 44.17707 | -74.88033 | 24803 ft | 461 kts | 229° |
| 2026-05-04 19:38 | 44.15420 | -74.91087 | 25077 ft | 461 kts | 229° |
| 2026-05-04 19:38 | 44.13105 | -74.94173 | 25420 ft | 459 kts | 229° |
| 2026-05-04 19:38 | 44.10808 | -74.97230 | 25823 ft | 456 kts | 229° |
| 2026-05-04 19:38 | 44.08509 | -75.00288 | 26189 ft | 455 kts | 229° |
| 2026-05-04 19:39 | 44.06222 | -75.03327 | 26499 ft | 454 kts | 229° |
| 2026-05-04 19:39 | 44.03934 | -75.06366 | 26786 ft | 454 kts | 229° |
| 2026-05-04 19:39 | 44.01649 | -75.09397 | 27130 ft | 453 kts | 229° |
| 2026-05-04 19:39 | 43.99372 | -75.12413 | 27499 ft | 451 kts | 229° |
| 2026-05-04 19:40 | 43.97104 | -75.15414 | 27868 ft | 449 kts | 230° |
| 2026-05-04 19:40 | 43.94844 | -75.18401 | 28176 ft | 449 kts | 230° |
| 2026-05-04 19:40 | 43.92581 | -75.21390 | 28493 ft | 448 kts | 230° |
| 2026-05-04 19:40 | 43.90350 | -75.24333 | 28815 ft | 447 kts | 230° |
| 2026-05-04 19:41 | 43.88095 | -75.27304 | 29144 ft | 446 kts | 230° |
| 2026-05-04 19:41 | 43.85846 | -75.30264 | 29461 ft | 445 kts | 230° |
| 2026-05-04 19:41 | 43.83600 | -75.33217 | 29760 ft | 445 kts | 230° |
| 2026-05-04 19:41 | 43.81357 | -75.36163 | 30015 ft | 444 kts | 230° |
| 2026-05-04 19:42 | 43.79109 | -75.39113 | 30216 ft | 445 kts | 230° |
| 2026-05-04 19:42 | 43.76859 | -75.42062 | 30393 ft | 446 kts | 230° |
| 2026-05-04 19:42 | 43.74599 | -75.45022 | 30598 ft | 446 kts | 230° |
| 2026-05-04 19:42 | 43.72348 | -75.47965 | 30819 ft | 446 kts | 230° |
| 2026-05-04 19:43 | 43.70091 | -75.50913 | 31023 ft | 446 kts | 230° |
| 2026-05-04 19:43 | 43.67835 | -75.53856 | 31208 ft | 447 kts | 230° |
| 2026-05-04 19:43 | 43.65606 | -75.56761 | 31401 ft | 447 kts | 231° |
| 2026-05-04 19:43 | 43.63345 | -75.59705 | 31591 ft | 447 kts | 231° |
| 2026-05-04 19:44 | 43.61075 | -75.62657 | 31777 ft | 448 kts | 231° |
| 2026-05-04 19:44 | 43.58808 | -75.65602 | 31963 ft | 448 kts | 231° |
| 2026-05-04 19:44 | 43.56538 | -75.68547 | 32137 ft | 449 kts | 231° |
| 2026-05-04 19:44 | 43.54257 | -75.71505 | 32305 ft | 449 kts | 231° |
| 2026-05-04 19:45 | 43.51980 | -75.74453 | 32496 ft | 449 kts | 231° |
| 2026-05-04 19:45 | 43.49703 | -75.77399 | 32660 ft | 450 kts | 231° |
| 2026-05-04 19:45 | 43.47418 | -75.80351 | 32826 ft | 450 kts | 231° |
| 2026-05-04 19:45 | 43.45134 | -75.83298 | 32997 ft | 450 kts | 231° |
| 2026-05-04 19:46 | 43.42844 | -75.86250 | 33165 ft | 451 kts | 231° |
| 2026-05-04 19:46 | 43.40561 | -75.89190 | 33331 ft | 451 kts | 231° |
| 2026-05-04 19:46 | 43.38264 | -75.92145 | 33509 ft | 451 kts | 231° |
| 2026-05-04 19:46 | 43.35997 | -75.95058 | 33684 ft | 451 kts | 231° |
| 2026-05-04 19:47 | 43.33708 | -75.97996 | 33764 ft | 451 kts | 231° |
| 2026-05-04 19:47 | 43.29109 | -76.03892 | 33777 ft | 452 kts | 231° |
| 2026-05-04 19:48 | 43.24503 | -76.09781 | 33779 ft | 452 kts | 231° |
| 2026-05-04 19:48 | 43.19900 | -76.15658 | 33783 ft | 452 kts | 231° |
| 2026-05-04 19:49 | 43.15402 | -76.21634 | 33776 ft | 444 kts | 238° |
| 2026-05-04 19:49 | 43.11718 | -76.28288 | 33777 ft | 440 kts | 241° |
| 2026-05-04 19:50 | 43.08102 | -76.35028 | 33773 ft | 439 kts | 241° |
| 2026-05-04 19:50 | 43.04463 | -76.41746 | 33773 ft | 440 kts | 241° |
| 2026-05-04 19:51 | 43.00789 | -76.48457 | 33781 ft | 441 kts | 240° |
| 2026-05-04 19:51 | 42.97104 | -76.55152 | 33769 ft | 441 kts | 240° |
| 2026-05-04 19:52 | 42.93427 | -76.61811 | 33770 ft | 442 kts | 240° |
| 2026-05-04 19:52 | 42.89720 | -76.68512 | 33769 ft | 442 kts | 240° |
| 2026-05-04 19:53 | 42.86014 | -76.75197 | 33771 ft | 442 kts | 240° |
| 2026-05-04 19:53 | 42.82298 | -76.81884 | 33779 ft | 442 kts | 240° |
| 2026-05-04 19:54 | 42.78587 | -76.88549 | 33778 ft | 442 kts | 240° |
| 2026-05-04 19:54 | 42.74868 | -76.95213 | 33786 ft | 441 kts | 239° |
| 2026-05-04 19:55 | 42.71149 | -77.01862 | 33793 ft | 441 kts | 239° |
| 2026-05-04 19:55 | 42.67437 | -77.08483 | 33787 ft | 440 kts | 239° |
| 2026-05-04 19:56 | 42.63720 | -77.15098 | 33795 ft | 440 kts | 239° |
| 2026-05-04 19:56 | 42.60028 | -77.21656 | 33787 ft | 439 kts | 239° |
| 2026-05-04 19:57 | 42.56311 | -77.28243 | 33782 ft | 439 kts | 239° |
| 2026-05-04 19:57 | 42.52592 | -77.34819 | 33794 ft | 439 kts | 239° |
| 2026-05-04 19:58 | 42.48870 | -77.41386 | 33793 ft | 440 kts | 238° |
| 2026-05-04 19:58 | 42.45146 | -77.47944 | 33783 ft | 442 kts | 238° |
| 2026-05-04 19:59 | 42.41389 | -77.54543 | 33792 ft | 442 kts | 238° |
| 2026-05-04 19:59 | 42.37626 | -77.61139 | 33789 ft | 444 kts | 238° |
| 2026-05-04 20:00 | 42.33843 | -77.67754 | 33799 ft | 445 kts | 238° |
| 2026-05-04 20:00 | 42.30054 | -77.74365 | 33807 ft | 445 kts | 238° |
| 2026-05-04 20:01 | 42.26277 | -77.80942 | 33815 ft | 446 kts | 238° |
| 2026-05-04 20:01 | 42.22477 | -77.87542 | 33824 ft | 445 kts | 238° |
| 2026-05-04 20:02 | 42.18672 | -77.94138 | 33819 ft | 445 kts | 238° |
| 2026-05-04 20:02 | 42.14868 | -78.00717 | 33841 ft | 444 kts | 237° |
| 2026-05-04 20:03 | 42.11063 | -78.07284 | 33848 ft | 444 kts | 237° |
| 2026-05-04 20:03 | 42.07277 | -78.13805 | 33803 ft | 444 kts | 237° |
| 2026-05-04 20:04 | 42.03477 | -78.20334 | 33809 ft | 443 kts | 237° |
| 2026-05-04 20:04 | 41.99667 | -78.26868 | 33798 ft | 443 kts | 237° |
| 2026-05-04 20:05 | 41.95855 | -78.33391 | 33812 ft | 443 kts | 237° |
| 2026-05-04 20:05 | 41.92064 | -78.39862 | 33808 ft | 443 kts | 237° |
| 2026-05-04 20:06 | 41.88246 | -78.46367 | 33803 ft | 443 kts | 237° |
| 2026-05-04 20:06 | 41.84426 | -78.52861 | 33807 ft | 443 kts | 237° |
| 2026-05-04 20:07 | 41.80611 | -78.59332 | 33806 ft | 442 kts | 237° |
| 2026-05-04 20:07 | 41.76789 | -78.65801 | 33811 ft | 442 kts | 236° |
| 2026-05-04 20:08 | 41.72965 | -78.72260 | 33816 ft | 442 kts | 236° |
| 2026-05-04 20:08 | 41.69144 | -78.78702 | 33811 ft | 442 kts | 236° |
| 2026-05-04 20:09 | 41.65338 | -78.85103 | 33817 ft | 442 kts | 236° |
| 2026-05-04 20:09 | 41.61502 | -78.91541 | 33817 ft | 442 kts | 236° |
| 2026-05-04 20:10 | 41.57666 | -78.97965 | 33818 ft | 443 kts | 236° |
| 2026-05-04 20:10 | 41.53824 | -79.04386 | 33815 ft | 443 kts | 236° |
| 2026-05-04 20:11 | 41.49972 | -79.10810 | 33821 ft | 443 kts | 236° |
| 2026-05-04 20:11 | 41.46115 | -79.17228 | 33816 ft | 443 kts | 236° |
| 2026-05-04 20:12 | 41.42288 | -79.23584 | 33825 ft | 443 kts | 236° |
| 2026-05-04 20:12 | 41.38432 | -79.29974 | 33823 ft | 443 kts | 236° |
| 2026-05-04 20:13 | 41.34567 | -79.36366 | 33835 ft | 443 kts | 235° |
| 2026-05-04 20:13 | 41.30703 | -79.42743 | 33828 ft | 443 kts | 235° |
| 2026-05-04 20:14 | 41.26834 | -79.49115 | 33826 ft | 443 kts | 235° |
| 2026-05-04 20:14 | 41.22954 | -79.55491 | 33822 ft | 443 kts | 235° |
| 2026-05-04 20:15 | 41.19073 | -79.61856 | 33827 ft | 444 kts | 235° |
| 2026-05-04 20:15 | 41.15841 | -79.67146 | 33815 ft | 444 kts | 235° |
| 2026-05-04 20:16 | 41.11947 | -79.73506 | 33830 ft | 443 kts | 235° |
| 2026-05-04 20:16 | 41.08052 | -79.79857 | 33831 ft | 443 kts | 235° |
| 2026-05-04 20:17 | 41.04155 | -79.86198 | 33844 ft | 443 kts | 235° |
| 2026-05-04 20:17 | 41.00258 | -79.92525 | 33844 ft | 443 kts | 234° |
| 2026-05-04 20:18 | 40.96378 | -79.98812 | 33839 ft | 443 kts | 234° |
| 2026-05-04 20:18 | 40.92476 | -80.05122 | 33844 ft | 443 kts | 234° |
| 2026-05-04 20:19 | 40.88564 | -80.11437 | 33843 ft | 443 kts | 234° |
| 2026-05-04 20:19 | 40.84646 | -80.17745 | 33844 ft | 444 kts | 233° |
| 2026-05-04 20:20 | 40.80020 | -80.23226 | 33832 ft | 453 kts | 216° |
| 2026-05-04 20:20 | 40.74576 | -80.27360 | 33830 ft | 454 kts | 213° |
| 2026-05-04 20:21 | 40.69058 | -80.31423 | 33832 ft | 454 kts | 213° |
| 2026-05-04 20:21 | 40.60810 | -80.37591 | 33829 ft | 454 kts | 214° |
| 2026-05-04 20:22 | 40.55318 | -80.41727 | 33835 ft | 454 kts | 213° |
| 2026-05-04 20:22 | 40.49818 | -80.45864 | 33835 ft | 454 kts | 213° |
| 2026-05-04 20:23 | 40.44325 | -80.49985 | 33842 ft | 454 kts | 213° |
| 2026-05-04 20:23 | 40.38837 | -80.54095 | 33848 ft | 454 kts | 213° |
| 2026-05-04 20:24 | 40.33337 | -80.58204 | 33853 ft | 454 kts | 213° |
| 2026-05-04 20:24 | 40.27872 | -80.62281 | 33844 ft | 455 kts | 213° |
| 2026-05-04 20:25 | 40.22367 | -80.66378 | 33853 ft | 454 kts | 213° |
| 2026-05-04 20:25 | 40.16873 | -80.70461 | 33847 ft | 454 kts | 213° |
| 2026-05-04 20:26 | 40.11384 | -80.74533 | 33845 ft | 454 kts | 213° |
| 2026-05-04 20:26 | 40.05887 | -80.78604 | 33853 ft | 453 kts | 213° |
| 2026-05-04 20:27 | 40.00465 | -80.82780 | 33850 ft | 450 kts | 219° |
| 2026-05-04 20:27 | 39.95439 | -80.87640 | 33855 ft | 449 kts | 221° |
| 2026-05-04 20:28 | 39.90510 | -80.92558 | 33863 ft | 449 kts | 221° |
| 2026-05-04 20:28 | 39.85541 | -80.97463 | 33867 ft | 448 kts | 221° |
| 2026-05-04 20:29 | 39.80549 | -81.02334 | 33872 ft | 448 kts | 220° |
| 2026-05-04 20:29 | 39.75561 | -81.07176 | 33871 ft | 447 kts | 220° |
| 2026-05-04 20:30 | 39.70569 | -81.12012 | 33870 ft | 447 kts | 221° |
| 2026-05-04 20:30 | 39.65590 | -81.16828 | 33870 ft | 446 kts | 221° |
| 2026-05-04 20:31 | 39.60608 | -81.21640 | 33873 ft | 446 kts | 221° |
| 2026-05-04 20:31 | 39.55662 | -81.26408 | 33872 ft | 445 kts | 221° |
| 2026-05-04 20:32 | 39.50681 | -81.31201 | 33877 ft | 445 kts | 221° |
| 2026-05-04 20:32 | 39.45705 | -81.35980 | 33881 ft | 446 kts | 221° |
| 2026-05-04 20:33 | 39.40714 | -81.40766 | 33893 ft | 446 kts | 221° |
| 2026-05-04 20:33 | 39.35710 | -81.45554 | 33886 ft | 447 kts | 221° |
| 2026-05-04 20:34 | 39.30706 | -81.50334 | 33888 ft | 448 kts | 221° |
| 2026-05-04 20:34 | 39.25692 | -81.55115 | 33884 ft | 449 kts | 221° |
| 2026-05-04 20:35 | 39.20691 | -81.59874 | 33881 ft | 450 kts | 221° |
| 2026-05-04 20:35 | 39.15647 | -81.64666 | 33885 ft | 450 kts | 221° |
| 2026-05-04 20:36 | 39.10568 | -81.69483 | 33887 ft | 451 kts | 221° |
| 2026-05-04 20:36 | 39.05542 | -81.74240 | 33894 ft | 451 kts | 221° |
| 2026-05-04 20:37 | 39.00477 | -81.79027 | 33891 ft | 452 kts | 220° |
| 2026-05-04 20:37 | 38.95404 | -81.83811 | 33896 ft | 452 kts | 220° |
| 2026-05-04 20:38 | 38.90329 | -81.88589 | 33889 ft | 452 kts | 220° |
| 2026-05-04 20:38 | 38.85256 | -81.93357 | 33891 ft | 452 kts | 220° |
| 2026-05-04 20:39 | 38.80189 | -81.98113 | 33887 ft | 451 kts | 220° |
| 2026-05-04 20:39 | 38.75176 | -82.02861 | 33883 ft | 449 kts | 224° |
| 2026-05-04 20:40 | 38.70684 | -82.08325 | 33884 ft | 444 kts | 229° |
| 2026-05-04 20:40 | 38.66316 | -82.13940 | 33886 ft | 443 kts | 229° |
| 2026-05-04 20:41 | 38.61947 | -82.19513 | 33883 ft | 443 kts | 229° |
| 2026-05-04 20:41 | 38.57569 | -82.25035 | 33897 ft | 442 kts | 229° |
| 2026-05-04 20:42 | 38.53185 | -82.30531 | 33904 ft | 441 kts | 229° |
| 2026-05-04 20:42 | 38.48825 | -82.35983 | 33901 ft | 441 kts | 228° |
| 2026-05-04 20:43 | 38.44444 | -82.41453 | 33912 ft | 440 kts | 229° |
| 2026-05-04 20:43 | 38.40067 | -82.46907 | 33920 ft | 439 kts | 229° |
| 2026-05-04 20:44 | 38.35698 | -82.52343 | 33927 ft | 438 kts | 229° |
| 2026-05-04 20:44 | 38.31343 | -82.57752 | 33919 ft | 437 kts | 229° |
| 2026-05-04 20:45 | 38.26988 | -82.63151 | 33916 ft | 436 kts | 229° |
| 2026-05-04 20:45 | 38.22669 | -82.68496 | 33914 ft | 435 kts | 229° |
| 2026-05-04 20:46 | 38.18328 | -82.73860 | 33907 ft | 434 kts | 229° |
| 2026-05-04 20:46 | 38.13990 | -82.79210 | 33915 ft | 434 kts | 229° |
| 2026-05-04 20:47 | 38.09661 | -82.84539 | 33917 ft | 434 kts | 229° |
| 2026-05-04 20:47 | 38.05330 | -82.89862 | 33914 ft | 434 kts | 229° |
| 2026-05-04 20:48 | 38.00990 | -82.95189 | 33929 ft | 434 kts | 228° |
| 2026-05-04 20:48 | 37.96641 | -83.00515 | 33926 ft | 435 kts | 228° |
| 2026-05-04 20:49 | 37.92311 | -83.05809 | 33923 ft | 435 kts | 228° |
| 2026-05-04 20:49 | 37.87949 | -83.11133 | 33929 ft | 436 kts | 228° |
| 2026-05-04 20:50 | 37.83572 | -83.16465 | 33936 ft | 436 kts | 228° |
| 2026-05-04 20:50 | 37.79188 | -83.21797 | 33940 ft | 437 kts | 228° |
| 2026-05-04 20:51 | 37.74831 | -83.27088 | 33948 ft | 437 kts | 228° |
| 2026-05-04 20:51 | 37.70445 | -83.32403 | 33950 ft | 436 kts | 228° |
| 2026-05-04 20:52 | 37.66071 | -83.37695 | 33954 ft | 435 kts | 228° |
| 2026-05-04 20:52 | 37.61698 | -83.42977 | 33951 ft | 434 kts | 228° |
| 2026-05-04 20:53 | 37.57337 | -83.48235 | 33944 ft | 433 kts | 228° |
| 2026-05-04 20:53 | 37.53015 | -83.53438 | 33943 ft | 431 kts | 229° |
| 2026-05-04 20:54 | 37.48681 | -83.58647 | 33933 ft | 430 kts | 229° |
| 2026-05-04 20:54 | 37.44350 | -83.63843 | 33925 ft | 429 kts | 229° |
| 2026-05-04 20:55 | 37.40033 | -83.69013 | 33927 ft | 428 kts | 229° |
| 2026-05-04 20:55 | 37.35718 | -83.74174 | 33929 ft | 427 kts | 229° |
| 2026-05-04 20:56 | 37.31437 | -83.79284 | 33931 ft | 426 kts | 228° |
| 2026-05-04 20:56 | 37.27111 | -83.84440 | 33940 ft | 426 kts | 228° |
| 2026-05-04 20:57 | 37.22836 | -83.89526 | 33938 ft | 426 kts | 228° |
| 2026-05-04 20:57 | 37.18539 | -83.94631 | 33950 ft | 426 kts | 228° |
| 2026-05-04 20:58 | 37.14230 | -83.99742 | 33931 ft | 426 kts | 228° |
| 2026-05-04 20:58 | 37.09922 | -84.04843 | 33933 ft | 427 kts | 228° |
| 2026-05-04 20:59 | 37.05597 | -84.09954 | 33929 ft | 427 kts | 228° |
| 2026-05-04 20:59 | 37.01267 | -84.15065 | 33939 ft | 428 kts | 228° |
| 2026-05-04 21:00 | 36.96936 | -84.20167 | 33937 ft | 428 kts | 228° |
| 2026-05-04 21:00 | 36.92597 | -84.25270 | 33949 ft | 429 kts | 228° |
| 2026-05-04 21:01 | 36.88274 | -84.30347 | 33949 ft | 429 kts | 228° |
| 2026-05-04 21:01 | 36.83910 | -84.35462 | 33957 ft | 429 kts | 228° |
| 2026-05-04 21:02 | 36.80289 | -84.39701 | 33940 ft | 429 kts | 227° |
| 2026-05-04 21:02 | 36.75934 | -84.44790 | 33968 ft | 429 kts | 227° |
| 2026-05-04 21:03 | 36.71570 | -84.49884 | 33948 ft | 429 kts | 227° |
| 2026-05-04 21:03 | 36.67201 | -84.54973 | 33965 ft | 429 kts | 227° |
| 2026-05-04 21:04 | 36.62842 | -84.60043 | 33967 ft | 429 kts | 227° |
| 2026-05-04 21:04 | 36.58483 | -84.65104 | 33960 ft | 429 kts | 227° |
| 2026-05-04 21:05 | 36.54146 | -84.70133 | 33962 ft | 428 kts | 227° |
| 2026-05-04 21:05 | 36.49788 | -84.75176 | 33960 ft | 428 kts | 227° |
| 2026-05-04 21:06 | 36.45424 | -84.80219 | 33967 ft | 428 kts | 227° |
| 2026-05-04 21:06 | 36.41058 | -84.85257 | 33968 ft | 428 kts | 227° |
| 2026-05-04 21:07 | 36.36696 | -84.90282 | 33972 ft | 428 kts | 227° |
| 2026-05-04 21:07 | 36.32329 | -84.95305 | 33978 ft | 428 kts | 227° |
| 2026-05-04 21:08 | 36.27971 | -85.00309 | 33990 ft | 429 kts | 227° |
| 2026-05-04 21:08 | 36.23589 | -85.05332 | 33986 ft | 430 kts | 227° |
| 2026-05-04 21:09 | 36.19184 | -85.10374 | 33980 ft | 430 kts | 226° |
| 2026-05-04 21:09 | 36.14788 | -85.15398 | 33991 ft | 430 kts | 226° |
| 2026-05-04 21:10 | 36.10381 | -85.20425 | 33992 ft | 431 kts | 226° |
| 2026-05-04 21:10 | 36.05976 | -85.25443 | 33990 ft | 431 kts | 226° |
| 2026-05-04 21:11 | 36.01588 | -85.30432 | 33994 ft | 431 kts | 226° |
| 2026-05-04 21:11 | 35.97164 | -85.35456 | 33967 ft | 432 kts | 226° |
| 2026-05-04 21:12 | 35.92742 | -85.40469 | 33967 ft | 432 kts | 226° |
| 2026-05-04 21:12 | 35.88309 | -85.45486 | 33974 ft | 432 kts | 226° |